createdAt,value
2017-11-13T00:02:12.021Z,5.00
2017-11-13T00:04:39.620Z,4.50
2017-11-13T00:07:07.539Z,4.73
2017-11-13T00:09:35.123Z,4.70
2017-11-13T00:12:03.481Z,4.90
2017-11-13T00:14:31.078Z,5.40
2017-11-13T00:16:59.422Z,5.17
2017-11-13T00:19:27.014Z,4.87
2017-11-13T00:21:55.350Z,4.80
2017-11-13T00:24:22.938Z,4.80
2017-11-13T00:26:51.282Z,4.40
2017-11-13T00:29:19.175Z,4.40
2017-11-13T00:31:46.739Z,5.70
2017-11-13T00:34:15.092Z,6.50
2017-11-13T00:36:42.798Z,5.80
2017-11-13T00:39:10.423Z,5.77
2017-11-13T00:41:38.035Z,6.17
2017-11-13T00:44:05.615Z,5.77
2017-11-13T00:46:33.704Z,5.60
2017-11-13T00:49:01.577Z,6.30
2017-11-13T00:51:29.179Z,5.57
2017-11-13T00:53:57.035Z,4.67
2017-11-13T00:56:24.623Z,5.70
2017-11-13T00:58:52.223Z,5.80
2017-11-13T01:01:19.806Z,5.37
2017-11-13T01:03:48.446Z,3.67
2017-11-13T01:06:16.128Z,4.10
2017-11-13T01:08:43.712Z,3.90
2017-11-13T01:11:13.158Z,3.33
2017-11-13T01:13:40.771Z,3.63
2017-11-13T01:16:09.126Z,3.87
2017-11-13T01:18:36.703Z,4.17
2017-11-13T01:21:05.236Z,4.03
2017-11-13T01:23:32.838Z,4.00
2017-11-13T01:26:00.420Z,4.13
2017-11-13T01:28:29.727Z,3.50
2017-11-13T01:30:57.529Z,3.70
2017-11-13T01:33:25.118Z,3.80
2017-11-13T01:35:52.703Z,3.40
2017-11-13T01:38:21.335Z,3.53
2017-11-13T01:40:48.989Z,4.17
2017-11-13T01:43:16.576Z,4.60
2017-11-13T01:45:44.181Z,4.13
2017-11-13T01:48:11.762Z,4.00
2017-11-13T01:50:40.574Z,3.63
2017-11-13T01:53:08.566Z,4.27
2017-11-13T01:55:36.922Z,4.20
2017-11-13T01:58:04.535Z,5.17
2017-11-13T02:00:32.156Z,4.20
2017-11-13T02:03:00.695Z,3.90
2017-11-13T02:05:28.257Z,4.00
2017-11-13T02:07:55.853Z,3.90
2017-11-13T02:10:23.443Z,4.00
2017-11-13T02:12:52.164Z,4.07
2017-11-13T02:15:19.767Z,3.30
2017-11-13T02:17:47.403Z,4.13
2017-11-13T02:20:15.002Z,3.83
2017-11-13T02:22:42.583Z,3.93
2017-11-13T02:25:10.199Z,5.00
2017-11-13T02:27:37.746Z,5.10
2017-11-13T02:30:05.408Z,5.10
2017-11-13T02:32:32.994Z,4.63
2017-11-13T02:35:00.598Z,4.83
2017-11-13T02:37:28.212Z,4.87
2017-11-13T02:39:55.761Z,5.07
2017-11-13T02:42:23.354Z,4.87
2017-11-13T02:44:50.903Z,4.20
2017-11-13T02:47:19.268Z,4.20
2017-11-13T02:49:47.616Z,3.90
2017-11-13T02:52:15.180Z,4.60
2017-11-13T02:54:42.784Z,4.17
2017-11-13T02:57:10.391Z,4.50
2017-11-13T02:59:38.002Z,4.47
2017-11-13T03:02:06.344Z,4.10
2017-11-13T03:04:33.930Z,3.63
2017-11-13T03:07:02.296Z,4.07
2017-11-13T03:09:29.883Z,4.30
2017-11-13T03:11:58.234Z,4.60
2017-11-13T03:14:25.816Z,4.47
2017-11-13T03:16:54.442Z,4.90
2017-11-13T03:19:22.019Z,5.57
2017-11-13T03:21:49.587Z,4.90
2017-11-13T03:24:17.187Z,5.13
2017-11-13T03:26:44.764Z,5.03
2017-11-13T03:29:12.671Z,4.87
2017-11-13T03:31:41.040Z,4.93
2017-11-13T03:34:09.002Z,4.60
2017-11-13T03:36:36.586Z,5.70
2017-11-13T03:39:04.186Z,5.60
2017-11-13T03:41:31.798Z,6.40
2017-11-13T03:43:59.368Z,4.53
2017-11-13T03:46:28.632Z,5.43
2017-11-13T03:48:56.760Z,5.60
2017-11-13T03:51:24.776Z,5.80
2017-11-13T03:53:52.363Z,6.20
2017-11-13T03:56:19.936Z,5.03
2017-11-13T03:58:47.576Z,5.47
2017-11-13T04:01:15.147Z,4.90
2017-11-13T04:03:44.207Z,6.30
2017-11-13T04:06:11.770Z,6.10
2017-11-13T04:08:39.737Z,6.33
2017-11-13T04:11:07.366Z,5.90
2017-11-13T04:13:34.952Z,5.90
2017-11-13T04:16:02.576Z,6.30
2017-11-13T04:18:30.183Z,5.60
2017-11-13T04:20:58.334Z,6.37
2017-11-13T04:23:25.911Z,5.80
2017-11-13T04:25:53.771Z,6.40
2017-11-13T04:28:21.610Z,5.60
2017-11-13T04:30:49.179Z,5.80
2017-11-13T04:33:16.779Z,6.10
2017-11-13T04:35:44.422Z,6.00
2017-11-13T04:38:12.160Z,6.10
2017-11-13T04:40:39.762Z,6.07
2017-11-13T04:43:07.707Z,5.93
2017-11-13T04:45:35.319Z,7.30
2017-11-13T04:48:03.735Z,6.03
2017-11-13T04:50:31.359Z,6.30
2017-11-13T04:52:59.715Z,6.93
2017-11-13T04:55:27.656Z,5.60
2017-11-13T04:57:55.335Z,5.47
2017-11-13T05:00:23.208Z,5.77
2017-11-13T05:02:50.790Z,6.13
2017-11-13T05:05:19.127Z,5.80
2017-11-13T05:07:46.747Z,5.10
2017-11-13T05:10:14.313Z,6.20
2017-11-13T05:12:41.905Z,6.10
2017-11-13T05:15:09.491Z,6.10
2017-11-13T05:17:37.467Z,6.50
2017-11-13T05:20:05.052Z,6.47
2017-11-13T05:22:32.655Z,5.87
2017-11-13T05:25:00.261Z,5.53
2017-11-13T05:27:27.900Z,5.47
2017-11-13T05:29:55.485Z,6.73
2017-11-13T05:32:23.060Z,7.10
2017-11-13T05:34:50.990Z,6.17
2017-11-13T05:37:18.569Z,8.00
2017-11-13T05:39:46.910Z,6.40
2017-11-13T05:42:14.506Z,7.20
2017-11-13T05:44:42.864Z,7.30
2017-11-13T05:47:11.344Z,7.00
2017-11-13T05:49:38.924Z,6.90
2017-11-13T05:52:07.555Z,6.93
2017-11-13T05:54:35.908Z,7.10
2017-11-13T05:57:03.475Z,7.27
2017-11-13T05:59:31.085Z,8.03
2017-11-13T06:01:58.671Z,7.73
2017-11-13T06:04:26.276Z,8.47
2017-11-13T06:06:53.924Z,8.87
2017-11-13T06:09:21.805Z,6.30
2017-11-13T06:11:49.392Z,7.13
2017-11-13T06:14:17.079Z,7.40
2017-11-13T06:16:44.900Z,7.83
2017-11-13T06:19:12.557Z,6.90
2017-11-13T06:21:40.174Z,7.10
2017-11-13T06:24:07.818Z,6.60
2017-11-13T06:26:36.537Z,6.20
2017-11-13T06:29:05.144Z,6.77
2017-11-13T06:31:32.727Z,7.27
2017-11-13T06:34:00.374Z,6.90
2017-11-13T06:36:27.971Z,6.57
2017-11-13T06:38:56.410Z,5.60
2017-11-13T06:41:24.000Z,6.57
2017-11-13T06:43:52.368Z,7.37
2017-11-13T06:46:20.737Z,6.33
2017-11-13T06:48:48.765Z,5.37
2017-11-13T06:51:16.368Z,7.37
2017-11-13T06:53:43.951Z,6.80
2017-11-13T06:56:11.679Z,7.10
2017-11-13T06:58:39.281Z,6.73
2017-11-13T07:01:07.657Z,6.90
2017-11-13T07:03:35.983Z,6.27
2017-11-13T07:06:04.670Z,6.63
2017-11-13T07:08:32.329Z,5.90
2017-11-13T07:11:00.683Z,7.13
2017-11-13T07:13:28.677Z,6.70
2017-11-13T07:15:56.271Z,7.00
2017-11-13T07:18:24.623Z,6.50
2017-11-13T07:20:52.269Z,7.80
2017-11-13T07:23:20.155Z,7.00
2017-11-13T07:25:47.733Z,7.37
2017-11-13T07:28:15.336Z,7.67
2017-11-13T07:30:42.949Z,7.57
2017-11-13T07:33:10.546Z,7.53
2017-11-13T07:35:38.164Z,8.47
2017-11-13T07:38:08.199Z,8.13
2017-11-13T07:40:36.808Z,8.10
2017-11-13T07:43:04.712Z,7.27
2017-11-13T07:45:32.298Z,6.87
2017-11-13T07:47:59.891Z,8.07
2017-11-13T07:50:27.485Z,7.00
2017-11-13T07:52:55.083Z,7.63
2017-11-13T07:55:22.706Z,6.70
2017-11-13T07:57:51.405Z,7.20
2017-11-13T08:00:19.074Z,8.43
2017-11-13T08:02:46.930Z,7.40
2017-11-13T08:05:14.539Z,9.50
2017-11-13T08:07:42.116Z,9.13
2017-11-13T08:10:09.724Z,8.23
2017-11-13T08:12:37.328Z,8.63
2017-11-13T08:15:05.253Z,9.60
2017-11-13T08:17:32.858Z,10.80
2017-11-13T08:20:00.496Z,8.07
2017-11-13T08:22:28.883Z,6.93
2017-11-13T08:24:56.494Z,7.50
2017-11-13T08:27:24.384Z,10.20
2017-11-13T08:29:52.908Z,8.60
2017-11-13T08:32:20.838Z,8.80
2017-11-13T08:34:49.224Z,10.00
2017-11-13T08:37:16.789Z,6.97
2017-11-13T08:39:45.140Z,7.00
2017-11-13T08:42:12.743Z,7.53
2017-11-13T08:44:40.780Z,5.50
2017-11-13T08:47:09.137Z,5.57
2017-11-13T08:49:36.981Z,6.50
2017-11-13T08:52:04.635Z,5.23
2017-11-13T08:54:32.222Z,6.03
2017-11-13T08:57:00.131Z,6.80
2017-11-13T08:59:28.468Z,6.20
2017-11-13T09:01:56.174Z,5.37
2017-11-13T09:04:23.815Z,5.67
2017-11-13T09:06:51.743Z,3.80
2017-11-13T09:09:19.459Z,4.57
2017-11-13T09:11:47.811Z,3.70
2017-11-13T09:14:15.420Z,5.00
2017-11-13T09:16:43.026Z,3.00
2017-11-13T09:19:10.875Z,3.90
2017-11-13T09:21:38.453Z,8.13
2017-11-13T09:24:06.405Z,4.20
2017-11-13T09:26:34.047Z,2.90
2017-11-13T09:29:01.685Z,2.80
2017-11-13T09:31:30.186Z,3.00
2017-11-13T09:33:57.786Z,2.20
2017-11-13T09:36:25.385Z,2.20
2017-11-13T09:38:53.234Z,2.97
2017-11-13T09:41:21.997Z,2.17
2017-11-13T09:43:49.579Z,2.27
2017-11-13T09:46:17.923Z,2.40
2017-11-13T09:48:45.532Z,2.83
2017-11-13T09:51:13.113Z,1.90
2017-11-13T09:53:41.494Z,3.73
2017-11-13T09:56:09.111Z,2.13
2017-11-13T09:58:37.882Z,2.80
2017-11-13T10:01:05.519Z,2.63
2017-11-13T10:03:33.100Z,1.93
2017-11-13T10:06:00.699Z,1.40
2017-11-13T10:08:28.326Z,3.33
2017-11-13T10:10:56.359Z,2.23
2017-11-13T10:13:23.953Z,2.03
2017-11-13T10:15:51.543Z,2.93
2017-11-13T10:18:19.928Z,2.60
2017-11-13T10:20:47.623Z,2.27
2017-11-13T10:23:15.222Z,2.20
2017-11-13T10:25:42.825Z,3.17
2017-11-13T10:28:10.821Z,3.10
2017-11-13T10:30:39.069Z,3.00
2017-11-13T10:33:06.663Z,3.17
2017-11-13T10:35:34.256Z,3.70
2017-11-13T10:38:02.584Z,2.80
2017-11-13T10:40:30.235Z,3.27
2017-11-13T10:42:57.802Z,3.00
2017-11-13T10:45:25.694Z,2.63
2017-11-13T10:47:53.283Z,3.23
2017-11-13T10:50:20.964Z,3.67
2017-11-13T10:52:48.565Z,2.97
2017-11-13T10:55:16.165Z,2.77
2017-11-13T10:57:44.907Z,2.67
2017-11-13T11:00:12.673Z,2.93
2017-11-13T11:02:40.268Z,2.70
2017-11-13T11:05:08.619Z,3.90
2017-11-13T11:07:36.164Z,2.47
2017-11-13T11:10:04.017Z,3.17
2017-11-13T11:12:31.576Z,2.20
2017-11-13T11:18:11.144Z,2.70
2017-11-13T11:23:41.040Z,2.60
2017-11-13T11:26:24.276Z,3.93
2017-11-13T11:28:51.936Z,3.17
2017-11-13T11:31:34.800Z,2.47
2017-11-13T11:34:22.279Z,2.60
2017-11-13T11:40:03.483Z,3.33
2017-11-13T11:42:31.118Z,3.10
2017-11-13T11:45:13.176Z,3.67
2017-11-13T11:47:50.927Z,3.23
2017-11-13T11:50:19.899Z,4.17
2017-11-13T11:52:48.352Z,3.67
2017-11-13T11:55:15.997Z,3.60
2017-11-13T11:57:43.580Z,3.60
2017-11-13T12:00:11.700Z,3.53
2017-11-13T12:02:39.268Z,3.43
2017-11-13T12:05:07.106Z,3.50
2017-11-13T12:07:35.459Z,3.20
2017-11-13T12:10:03.084Z,4.10
2017-11-13T12:12:30.700Z,3.20
2017-11-13T12:14:59.034Z,2.60
2017-11-13T12:17:26.633Z,3.37
2017-11-13T12:19:54.379Z,3.10
2017-11-13T12:22:22.336Z,3.43
2017-11-13T12:24:49.941Z,3.10
2017-11-13T12:27:17.559Z,3.90
2017-11-13T12:29:45.240Z,3.17
2017-11-13T12:32:13.630Z,2.80
2017-11-13T12:34:42.022Z,3.37
2017-11-13T12:37:10.405Z,3.33
2017-11-13T12:39:38.319Z,2.50
2017-11-13T12:42:06.027Z,3.33
2017-11-13T12:44:33.671Z,3.10
2017-11-13T12:47:01.301Z,3.00
2017-11-13T12:49:28.892Z,3.00
2017-11-13T12:51:57.345Z,2.40
2017-11-13T12:54:26.500Z,2.37
2017-11-13T12:56:54.381Z,2.27
2017-11-13T12:59:22.707Z,1.77
2017-11-13T13:01:50.490Z,2.37
2017-11-13T13:04:18.994Z,2.30
2017-11-13T13:06:46.598Z,2.40
2017-11-13T13:09:14.211Z,2.70
2017-11-13T13:11:41.882Z,3.10
2017-11-13T13:14:10.112Z,2.50
2017-11-13T13:16:37.683Z,2.67
2017-11-13T13:19:06.023Z,2.23
2017-11-13T13:21:33.639Z,2.90
2017-11-13T13:24:01.227Z,3.10
2017-11-13T13:26:28.830Z,3.07
2017-11-13T13:28:57.184Z,2.97
2017-11-13T13:31:25.256Z,3.30
2017-11-13T13:33:52.856Z,2.87
2017-11-13T13:36:21.216Z,2.53
2017-11-13T13:38:48.820Z,3.53
2017-11-13T13:41:16.628Z,3.00
2017-11-13T13:43:44.239Z,2.80
2017-11-13T13:46:11.822Z,3.77
2017-11-13T13:48:40.929Z,3.10
2017-11-13T13:51:08.529Z,3.70
2017-11-13T13:53:36.111Z,3.00
2017-11-13T13:56:03.730Z,4.43
2017-11-13T13:58:31.335Z,3.30
2017-11-13T14:00:59.290Z,3.30
2017-11-13T14:03:26.866Z,3.43
2017-11-13T14:05:54.451Z,3.50
2017-11-13T14:08:22.056Z,3.10
2017-11-13T14:10:52.625Z,3.20
2017-11-13T14:13:20.431Z,3.30
2017-11-13T14:15:48.060Z,3.20
2017-11-13T14:18:15.961Z,3.67
2017-11-13T14:20:43.755Z,2.87
2017-11-13T14:23:11.346Z,3.10
2017-11-13T14:25:38.942Z,3.53
2017-11-13T14:28:06.568Z,3.27
2017-11-13T14:30:34.257Z,3.30
2017-11-13T14:33:01.863Z,2.90
2017-11-13T14:35:29.764Z,2.87
2017-11-13T14:37:57.388Z,2.83
2017-11-13T14:40:24.998Z,3.20
2017-11-13T14:42:53.413Z,3.87
2017-11-13T14:45:21.772Z,9.40
2017-11-13T14:47:49.374Z,4.37
2017-11-13T14:50:17.057Z,4.03
2017-11-13T14:52:44.940Z,4.20
2017-11-13T14:55:12.519Z,3.30
2017-11-13T14:57:40.109Z,3.77
2017-11-13T15:00:08.031Z,3.07
2017-11-13T15:02:35.623Z,2.90
2017-11-13T15:05:03.981Z,3.27
2017-11-13T15:07:31.599Z,3.43
2017-11-13T15:09:59.491Z,3.03
2017-11-13T15:12:27.590Z,3.23
2017-11-13T15:14:55.940Z,2.90
2017-11-13T15:17:23.586Z,3.63
2017-11-13T15:19:51.401Z,2.77
2017-11-13T15:22:19.771Z,2.80
2017-11-13T15:24:48.155Z,4.10
2017-11-13T15:27:16.863Z,2.90
2017-11-13T15:29:44.571Z,4.90
2017-11-13T15:32:12.211Z,3.33
2017-11-13T15:34:39.877Z,3.43
2017-11-13T15:37:07.485Z,3.77
2017-11-13T15:39:36.158Z,4.17
2017-11-13T15:42:03.751Z,3.83
2017-11-13T15:44:31.351Z,4.30
2017-11-13T15:46:58.956Z,4.60
2017-11-13T15:49:26.652Z,3.87
2017-11-13T15:51:54.255Z,3.80
2017-11-13T15:54:21.887Z,2.80
2017-11-13T15:56:50.071Z,4.33
2017-11-13T15:59:18.065Z,3.93
2017-11-13T16:01:45.646Z,6.40
2017-11-13T16:04:13.377Z,7.60
2017-11-13T16:06:41.784Z,12.60
2017-11-13T16:09:10.512Z,5.80
2017-11-13T16:11:38.152Z,7.47
2017-11-13T16:14:06.108Z,5.23
2017-11-13T16:16:33.756Z,5.60
2017-11-13T16:19:01.475Z,6.63
2017-11-13T16:21:29.099Z,7.10
2017-11-13T16:23:56.688Z,5.50
2017-11-13T16:26:24.599Z,6.33
2017-11-13T16:28:52.984Z,6.27
2017-11-13T16:31:20.560Z,7.57
2017-11-13T16:33:48.160Z,6.20
2017-11-13T16:36:15.879Z,6.97
2017-11-13T16:38:43.793Z,10.00
2017-11-13T16:41:11.424Z,5.17
2017-11-13T16:43:39.025Z,7.30
2017-11-13T16:46:06.666Z,6.13
2017-11-13T16:48:34.281Z,7.00
2017-11-13T16:51:01.884Z,7.97
2017-11-13T16:53:29.698Z,7.20
2017-11-13T16:55:57.936Z,12.50
2017-11-13T16:58:25.727Z,14.93
2017-11-13T17:00:53.413Z,11.37
2017-11-13T17:03:21.059Z,12.37
2017-11-13T17:05:49.474Z,12.90
2017-11-13T17:08:17.376Z,10.70
2017-11-13T17:10:44.964Z,12.77
2017-11-13T17:13:13.354Z,10.47
2017-11-13T17:15:42.507Z,10.10
2017-11-13T17:18:10.145Z,10.97
2017-11-13T17:20:37.750Z,6.60
2017-11-13T17:23:06.148Z,6.70
2017-11-13T17:25:33.751Z,5.70
2017-11-13T17:28:01.374Z,5.67
2017-11-13T17:30:28.927Z,5.57
2017-11-13T17:32:56.950Z,6.93
2017-11-13T17:35:24.532Z,7.53
2017-11-13T17:37:52.106Z,7.73
2017-11-13T17:40:19.734Z,7.30
2017-11-13T17:42:47.368Z,6.80
2017-11-13T17:45:14.962Z,11.30
2017-11-13T17:47:42.643Z,7.37
2017-11-13T17:50:11.001Z,7.27
2017-11-13T17:52:38.768Z,9.90
2017-11-13T17:55:06.393Z,11.87
2017-11-13T17:57:34.088Z,7.27
2017-11-13T18:00:01.685Z,7.37
2017-11-13T18:02:29.283Z,8.37
2017-11-13T18:04:56.940Z,13.17
2017-11-13T18:07:24.603Z,7.70
2017-11-13T18:09:52.704Z,7.33
2017-11-13T18:12:20.329Z,7.90
2017-11-13T18:14:47.915Z,8.20
2017-11-13T18:17:15.517Z,10.40
2017-11-13T18:19:43.178Z,9.07
2017-11-13T18:22:11.105Z,11.83
2017-11-13T18:24:38.684Z,9.73
2017-11-13T18:27:07.073Z,9.73
2017-11-13T18:29:35.464Z,8.63
2017-11-13T18:32:03.426Z,8.83
2017-11-13T18:34:31.261Z,8.90
2017-11-13T18:36:59.656Z,9.80
2017-11-13T18:39:28.012Z,11.50
2017-11-13T18:41:55.689Z,11.30
2017-11-13T18:44:23.279Z,10.10
2017-11-13T18:46:51.198Z,10.80
2017-11-13T18:49:18.798Z,8.20
2017-11-13T18:51:46.412Z,9.03
2017-11-13T18:54:14.046Z,8.27
2017-11-13T18:56:41.666Z,9.70
2017-11-13T18:59:09.365Z,9.60
2017-11-13T19:01:37.408Z,9.37
2017-11-13T19:04:05.414Z,9.10
2017-11-13T19:06:33.120Z,9.60
2017-11-13T19:09:00.796Z,9.30
2017-11-13T19:11:29.273Z,12.17
2017-11-13T19:13:56.988Z,13.60
2017-11-13T19:16:25.458Z,12.27
2017-11-13T19:18:53.058Z,12.67
2017-11-13T19:21:20.912Z,13.90
2017-11-13T19:23:48.554Z,12.57
2017-11-13T19:26:16.180Z,12.80
2017-11-13T19:28:43.918Z,11.50
2017-11-13T19:31:12.319Z,11.90
2017-11-13T19:33:40.000Z,11.57
2017-11-13T19:36:07.687Z,10.50
2017-11-13T19:38:35.608Z,12.90
2017-11-13T19:41:04.158Z,11.20
2017-11-13T19:43:31.861Z,10.37
2017-11-13T19:45:59.543Z,9.80
2017-11-13T19:48:27.208Z,11.83
2017-11-13T19:50:54.889Z,12.40
2017-11-13T19:53:22.500Z,17.60
2017-11-13T19:55:50.625Z,24.50
2017-11-13T19:58:18.242Z,29.13
2017-11-13T20:00:45.873Z,25.17
2017-11-13T20:03:13.505Z,18.57
2017-11-13T20:05:41.150Z,14.87
2017-11-13T20:08:09.370Z,14.27
2017-11-13T20:10:37.771Z,12.20
2017-11-13T20:13:05.866Z,11.00
2017-11-13T20:15:33.499Z,14.20
2017-11-13T20:18:01.869Z,16.20
2017-11-13T20:20:29.547Z,19.37
2017-11-13T20:22:57.156Z,26.07
2017-11-13T20:25:24.946Z,25.80
2017-11-13T20:27:53.339Z,26.30
2017-11-13T20:30:21.367Z,23.60
2017-11-13T20:32:49.038Z,23.83
2017-11-13T20:35:16.879Z,18.57
2017-11-13T20:37:44.512Z,16.67
2017-11-13T20:40:12.156Z,17.50
2017-11-13T20:42:40.939Z,19.30
2017-11-13T20:45:09.982Z,20.07
2017-11-13T20:47:38.062Z,21.37
2017-11-13T20:50:05.685Z,24.33
2017-11-13T20:52:33.463Z,22.07
2017-11-13T20:55:01.117Z,28.30
2017-11-13T20:57:28.752Z,19.20
2017-11-13T20:59:57.303Z,18.60
2017-11-13T21:02:29.809Z,18.40
2017-11-13T21:04:57.463Z,19.40
2017-11-13T21:07:25.772Z,19.30
2017-11-13T21:09:53.384Z,21.37
2017-11-13T21:12:21.021Z,19.17
2017-11-13T21:14:48.642Z,22.23
2017-11-13T21:17:18.371Z,20.50
2017-11-13T21:19:48.521Z,21.80
2017-11-13T21:22:16.521Z,21.57
2017-11-13T21:24:45.129Z,24.00
2017-11-13T21:27:12.893Z,21.43
2017-11-13T21:29:40.574Z,14.43
2017-11-13T21:32:08.206Z,14.17
2017-11-13T21:34:35.891Z,14.23
2017-11-13T21:37:03.495Z,17.02
2017-11-13T21:39:31.356Z,16.77
2017-11-13T21:41:59.015Z,18.10
2017-11-13T21:44:26.750Z,17.87
2017-11-13T21:46:54.367Z,18.87
2017-11-13T21:49:23.513Z,17.20
2017-11-13T21:51:51.855Z,16.48
2017-11-13T21:54:19.441Z,18.85
2017-11-13T21:56:47.348Z,18.25
2017-11-13T21:59:15.961Z,20.70
2017-11-13T22:01:43.683Z,17.50
2017-11-13T22:04:11.317Z,17.05
2017-11-13T22:06:38.967Z,19.92
2017-11-13T22:09:06.914Z,20.10
2017-11-13T22:11:34.549Z,20.95
2017-11-13T22:14:02.166Z,18.62
2017-11-13T22:16:29.875Z,20.33
2017-11-13T22:18:58.334Z,20.65
2017-11-13T22:21:27.006Z,18.50
2017-11-13T22:23:54.710Z,20.42
2017-11-13T22:26:23.466Z,21.08
2017-11-13T22:28:51.052Z,20.75
2017-11-13T22:31:18.663Z,20.12
2017-11-13T22:33:46.287Z,20.48
2017-11-13T22:36:13.890Z,20.30
2017-11-13T22:38:48.359Z,21.67
2017-11-13T22:41:16.732Z,21.55
2017-11-13T22:43:45.394Z,20.65
2017-11-13T22:46:13.033Z,17.58
2017-11-13T22:48:40.623Z,18.27
2017-11-13T22:51:08.258Z,17.75
2017-11-13T22:53:35.851Z,17.48
2017-11-13T22:56:03.468Z,21.50
2017-11-13T22:58:31.063Z,22.70
2017-11-13T23:00:58.917Z,25.05
2017-11-13T23:03:26.513Z,24.37
2017-11-13T23:05:54.869Z,26.45
2017-11-13T23:08:22.488Z,23.98
2017-11-13T23:10:50.092Z,25.20
2017-11-13T23:13:17.719Z,23.17
2017-11-13T23:15:45.329Z,26.33
2017-11-13T23:18:14.088Z,24.67
2017-11-13T23:20:41.682Z,24.95
2017-11-13T23:23:10.146Z,24.05
2017-11-13T23:25:37.770Z,22.60
2017-11-13T23:28:05.352Z,22.80
2017-11-13T23:30:33.842Z,26.55
2017-11-13T23:33:01.454Z,25.77
2017-11-13T23:35:29.482Z,25.37
2017-11-13T23:37:57.128Z,26.98
2017-11-13T23:40:24.744Z,25.00
2017-11-13T23:42:52.345Z,24.85
2017-11-13T23:45:19.966Z,26.73
2017-11-13T23:47:47.584Z,29.12
2017-11-13T23:50:15.216Z,26.87
2017-11-13T23:52:43.298Z,26.12
2017-11-13T23:55:11.134Z,35.88
2017-11-13T23:57:38.710Z,32.97
